sensor_id;sensor_type;location;lat;lon;timestamp;P1;durP1;ratioP1;P2;durP2;ratioP2
12359;SDS011;6244;51.460;7.090;2023-01-31T00:00:30;9.77;;;4.05;;
12359;SDS011;6244;51.460;7.090;2023-01-31T00:05:28;8.52;;;4.30;;
12359;SDS011;6244;51.460;7.090;2023-01-31T00:10:24;7.82;;;3.97;;
12359;SDS011;6244;51.460;7.090;2023-01-31T00:15:21;13.75;;;4.32;;
12359;SDS011;6244;51.460;7.090;2023-01-31T00:20:17;13.70;;;4.50;;
12359;SDS011;6244;51.460;7.090;2023-01-31T00:25:15;10.88;;;4.30;;
12359;SDS011;6244;51.460;7.090;2023-01-31T00:30:12;12.27;;;4.22;;
12359;SDS011;6244;51.460;7.090;2023-01-31T00:35:09;10.98;;;4.65;;
12359;SDS011;6244;51.460;7.090;2023-01-31T00:40:06;13.63;;;4.43;;
12359;SDS011;6244;51.460;7.090;2023-01-31T00:45:05;15.50;;;4.68;;
12359;SDS011;6244;51.460;7.090;2023-01-31T00:50:03;11.20;;;4.75;;
12359;SDS011;6244;51.460;7.090;2023-01-31T00:55:01;14.95;;;5.05;;
12359;SDS011;6244;51.460;7.090;2023-01-31T00:59:57;11.02;;;4.50;;
12359;SDS011;6244;51.460;7.090;2023-01-31T01:04:55;11.80;;;4.85;;
12359;SDS011;6244;51.460;7.090;2023-01-31T01:09:51;9.43;;;4.18;;
12359;SDS011;6244;51.460;7.090;2023-01-31T01:14:48;13.18;;;4.22;;
12359;SDS011;6244;51.460;7.090;2023-01-31T01:19:44;14.60;;;4.95;;
12359;SDS011;6244;51.460;7.090;2023-01-31T01:24:43;13.05;;;5.07;;
12359;SDS011;6244;51.460;7.090;2023-01-31T01:29:40;17.10;;;5.68;;
12359;SDS011;6244;51.460;7.090;2023-01-31T01:34:36;12.10;;;5.55;;
12359;SDS011;6244;51.460;7.090;2023-01-31T01:39:33;12.38;;;5.15;;
12359;SDS011;6244;51.460;7.090;2023-01-31T01:44:44;15.02;;;5.55;;
12359;SDS011;6244;51.460;7.090;2023-01-31T01:54:42;12.68;;;4.97;;
12359;SDS011;6244;51.460;7.090;2023-01-31T01:59:42;11.13;;;5.05;;
12359;SDS011;6244;51.460;7.090;2023-01-31T02:04:43;10.25;;;4.68;;
12359;SDS011;6244;51.460;7.090;2023-01-31T02:09:45;10.10;;;5.18;;
12359;SDS011;6244;51.460;7.090;2023-01-31T02:19:49;9.93;;;4.05;;
12359;SDS011;6244;51.460;7.090;2023-01-31T02:30:41;11.85;;;4.55;;
12359;SDS011;6244;51.460;7.090;2023-01-31T02:36:03;9.50;;;4.78;;
12359;SDS011;6244;51.460;7.090;2023-01-31T02:41:11;18.08;;;5.40;;
12359;SDS011;6244;51.460;7.090;2023-01-31T02:46:13;11.35;;;4.93;;
12359;SDS011;6244;51.460;7.090;2023-01-31T02:51:15;13.23;;;5.05;;
12359;SDS011;6244;51.460;7.090;2023-01-31T03:01:18;16.40;;;5.28;;
12359;SDS011;6244;51.460;7.090;2023-01-31T03:11:49;18.70;;;5.15;;
12359;SDS011;6244;51.460;7.090;2023-01-31T03:16:51;20.98;;;5.63;;
12359;SDS011;6244;51.460;7.090;2023-01-31T03:22:14;11.48;;;4.53;;
12359;SDS011;6244;51.460;7.090;2023-01-31T03:27:18;11.55;;;5.10;;
12359;SDS011;6244;51.460;7.090;2023-01-31T03:32:18;12.95;;;4.95;;
12359;SDS011;6244;51.460;7.090;2023-01-31T03:37:20;11.45;;;5.13;;
12359;SDS011;6244;51.460;7.090;2023-01-31T03:42:27;12.73;;;5.45;;
12359;SDS011;6244;51.460;7.090;2023-01-31T03:47:30;13.75;;;6.03;;
12359;SDS011;6244;51.460;7.090;2023-01-31T03:52:32;10.40;;;4.82;;
12359;SDS011;6244;51.460;7.090;2023-01-31T03:57:33;8.33;;;4.63;;
12359;SDS011;6244;51.460;7.090;2023-01-31T04:02:35;13.90;;;5.75;;
12359;SDS011;6244;51.460;7.090;2023-01-31T04:07:33;11.13;;;4.60;;
12359;SDS011;6244;51.460;7.090;2023-01-31T04:12:33;8.57;;;4.70;;
12359;SDS011;6244;51.460;7.090;2023-01-31T04:17:31;8.82;;;4.68;;
12359;SDS011;6244;51.460;7.090;2023-01-31T04:22:28;13.65;;;8.13;;
12359;SDS011;6244;51.460;7.090;2023-01-31T04:27:25;11.60;;;5.43;;
12359;SDS011;6244;51.460;7.090;2023-01-31T04:32:22;15.80;;;5.25;;
12359;SDS011;6244;51.460;7.090;2023-01-31T04:37:18;14.93;;;6.07;;
12359;SDS011;6244;51.460;7.090;2023-01-31T04:42:15;18.90;;;6.53;;
12359;SDS011;6244;51.460;7.090;2023-01-31T04:47:13;17.13;;;6.47;;
12359;SDS011;6244;51.460;7.090;2023-01-31T04:52:09;15.68;;;6.40;;
12359;SDS011;6244;51.460;7.090;2023-01-31T04:57:06;17.75;;;7.22;;
12359;SDS011;6244;51.460;7.090;2023-01-31T05:02:02;18.17;;;7.90;;
12359;SDS011;6244;51.460;7.090;2023-01-31T05:07:00;19.10;;;6.93;;
12359;SDS011;6244;51.460;7.090;2023-01-31T05:11:57;15.95;;;6.57;;
12359;SDS011;6244;51.460;7.090;2023-01-31T05:16:53;15.82;;;6.32;;
12359;SDS011;6244;51.460;7.090;2023-01-31T05:21:50;15.80;;;8.32;;
12359;SDS011;6244;51.460;7.090;2023-01-31T05:26:55;12.00;;;6.70;;
12359;SDS011;6244;51.460;7.090;2023-01-31T05:31:53;15.07;;;7.53;;
12359;SDS011;6244;51.460;7.090;2023-01-31T05:36:51;12.40;;;6.00;;
12359;SDS011;6244;51.460;7.090;2023-01-31T05:41:47;18.92;;;7.60;;
12359;SDS011;6244;51.460;7.090;2023-01-31T05:46:45;18.50;;;7.47;;
12359;SDS011;6244;51.460;7.090;2023-01-31T05:51:42;15.80;;;7.90;;
12359;SDS011;6244;51.460;7.090;2023-01-31T05:56:38;16.58;;;8.18;;
12359;SDS011;6244;51.460;7.090;2023-01-31T06:01:35;18.23;;;8.02;;
12359;SDS011;6244;51.460;7.090;2023-01-31T06:06:33;20.30;;;8.13;;
12359;SDS011;6244;51.460;7.090;2023-01-31T06:11:30;16.85;;;8.05;;
12359;SDS011;6244;51.460;7.090;2023-01-31T06:16:26;16.67;;;7.80;;
12359;SDS011;6244;51.460;7.090;2023-01-31T06:21:23;13.82;;;7.20;;
12359;SDS011;6244;51.460;7.090;2023-01-31T06:26:20;21.48;;;8.43;;
12359;SDS011;6244;51.460;7.090;2023-01-31T06:31:17;20.00;;;7.63;;
12359;SDS011;6244;51.460;7.090;2023-01-31T06:36:14;18.55;;;7.55;;
12359;SDS011;6244;51.460;7.090;2023-01-31T06:41:10;14.10;;;7.70;;
12359;SDS011;6244;51.460;7.090;2023-01-31T06:46:09;23.30;;;7.63;;
12359;SDS011;6244;51.460;7.090;2023-01-31T06:51:06;16.67;;;7.10;;
12359;SDS011;6244;51.460;7.090;2023-01-31T06:56:02;20.27;;;8.50;;
12359;SDS011;6244;51.460;7.090;2023-01-31T07:01:02;15.88;;;7.57;;
12359;SDS011;6244;51.460;7.090;2023-01-31T07:06:01;17.90;;;8.40;;
12359;SDS011;6244;51.460;7.090;2023-01-31T07:10:58;16.60;;;8.38;;
12359;SDS011;6244;51.460;7.090;2023-01-31T07:15:56;15.45;;;7.15;;
12359;SDS011;6244;51.460;7.090;2023-01-31T07:20:52;16.35;;;8.07;;
12359;SDS011;6244;51.460;7.090;2023-01-31T07:25:51;18.88;;;7.55;;
12359;SDS011;6244;51.460;7.090;2023-01-31T07:30:47;14.70;;;7.60;;
12359;SDS011;6244;51.460;7.090;2023-01-31T07:35:45;16.95;;;7.00;;
12359;SDS011;6244;51.460;7.090;2023-01-31T07:40:42;18.45;;;7.78;;
12359;SDS011;6244;51.460;7.090;2023-01-31T07:45:40;16.42;;;7.68;;
12359;SDS011;6244;51.460;7.090;2023-01-31T07:50:36;17.50;;;7.22;;
12359;SDS011;6244;51.460;7.090;2023-01-31T07:55:33;18.80;;;7.75;;
12359;SDS011;6244;51.460;7.090;2023-01-31T08:00:29;16.85;;;7.25;;
12359;SDS011;6244;51.460;7.090;2023-01-31T08:05:45;17.45;;;7.45;;
12359;SDS011;6244;51.460;7.090;2023-01-31T08:10:42;13.18;;;6.05;;
12359;SDS011;6244;51.460;7.090;2023-01-31T08:15:41;13.82;;;7.18;;
12359;SDS011;6244;51.460;7.090;2023-01-31T08:20:37;15.25;;;6.53;;
12359;SDS011;6244;51.460;7.090;2023-01-31T08:25:36;14.10;;;6.75;;
12359;SDS011;6244;51.460;7.090;2023-01-31T08:30:33;20.38;;;6.35;;
12359;SDS011;6244;51.460;7.090;2023-01-31T08:35:29;12.80;;;6.38;;
12359;SDS011;6244;51.460;7.090;2023-01-31T08:40:26;14.82;;;7.22;;
12359;SDS011;6244;51.460;7.090;2023-01-31T08:45:24;19.08;;;6.20;;
12359;SDS011;6244;51.460;7.090;2023-01-31T08:50:20;16.55;;;12.35;;
12359;SDS011;6244;51.460;7.090;2023-01-31T08:55:17;15.57;;;12.07;;
12359;SDS011;6244;51.460;7.090;2023-01-31T09:00:14;13.55;;;10.20;;
12359;SDS011;6244;51.460;7.090;2023-01-31T09:05:12;19.77;;;10.30;;
12359;SDS011;6244;51.460;7.090;2023-01-31T09:10:09;14.98;;;7.53;;
12359;SDS011;6244;51.460;7.090;2023-01-31T09:15:07;14.90;;;6.68;;
12359;SDS011;6244;51.460;7.090;2023-01-31T09:20:04;12.65;;;6.20;;
12359;SDS011;6244;51.460;7.090;2023-01-31T09:25:05;17.15;;;6.18;;
12359;SDS011;6244;51.460;7.090;2023-01-31T09:30:03;13.50;;;6.18;;
12359;SDS011;6244;51.460;7.090;2023-01-31T09:35:01;13.45;;;5.60;;
12359;SDS011;6244;51.460;7.090;2023-01-31T09:39:57;9.63;;;5.65;;
12359;SDS011;6244;51.460;7.090;2023-01-31T09:45:00;17.35;;;5.78;;
12359;SDS011;6244;51.460;7.090;2023-01-31T09:50:00;10.35;;;4.70;;
12359;SDS011;6244;51.460;7.090;2023-01-31T09:54:59;10.32;;;5.15;;
12359;SDS011;6244;51.460;7.090;2023-01-31T09:59:57;11.15;;;4.53;;
12359;SDS011;6244;51.460;7.090;2023-01-31T10:05:11;9.90;;;4.80;;
12359;SDS011;6244;51.460;7.090;2023-01-31T10:10:16;11.63;;;4.75;;
12359;SDS011;6244;51.460;7.090;2023-01-31T10:15:26;12.13;;;5.40;;
12359;SDS011;6244;51.460;7.090;2023-01-31T10:20:30;9.20;;;4.97;;
12359;SDS011;6244;51.460;7.090;2023-01-31T10:25:31;9.10;;;5.05;;
12359;SDS011;6244;51.460;7.090;2023-01-31T10:30:35;8.68;;;4.82;;
12359;SDS011;6244;51.460;7.090;2023-01-31T10:35:38;12.45;;;4.80;;
12359;SDS011;6244;51.460;7.090;2023-01-31T10:40:39;17.20;;;5.78;;
12359;SDS011;6244;51.460;7.090;2023-01-31T10:45:40;14.05;;;5.55;;
12359;SDS011;6244;51.460;7.090;2023-01-31T10:50:39;14.52;;;5.85;;
12359;SDS011;6244;51.460;7.090;2023-01-31T10:55:51;8.73;;;5.55;;
12359;SDS011;6244;51.460;7.090;2023-01-31T11:00:54;17.35;;;6.40;;
12359;SDS011;6244;51.460;7.090;2023-01-31T11:05:51;12.18;;;5.70;;
12359;SDS011;6244;51.460;7.090;2023-01-31T11:10:50;11.80;;;5.80;;
12359;SDS011;6244;51.460;7.090;2023-01-31T11:15:47;15.55;;;6.22;;
12359;SDS011;6244;51.460;7.090;2023-01-31T11:20:48;12.52;;;6.10;;
12359;SDS011;6244;51.460;7.090;2023-01-31T11:25:45;9.48;;;5.60;;
12359;SDS011;6244;51.460;7.090;2023-01-31T11:30:45;10.88;;;5.50;;
12359;SDS011;6244;51.460;7.090;2023-01-31T11:35:43;12.55;;;6.22;;
12359;SDS011;6244;51.460;7.090;2023-01-31T11:40:48;10.57;;;5.78;;
12359;SDS011;6244;51.460;7.090;2023-01-31T11:45:45;12.95;;;6.28;;
12359;SDS011;6244;51.460;7.090;2023-01-31T11:50:52;14.15;;;6.60;;
12359;SDS011;6244;51.460;7.090;2023-01-31T11:55:51;11.75;;;6.00;;
12359;SDS011;6244;51.460;7.090;2023-01-31T12:00:53;10.82;;;6.47;;
12359;SDS011;6244;51.460;7.090;2023-01-31T12:06:00;19.95;;;6.93;;
12359;SDS011;6244;51.460;7.090;2023-01-31T12:10:58;14.75;;;7.13;;
12359;SDS011;6244;51.460;7.090;2023-01-31T12:15:55;12.90;;;6.85;;
12359;SDS011;6244;51.460;7.090;2023-01-31T12:20:56;14.02;;;7.03;;
12359;SDS011;6244;51.460;7.090;2023-01-31T12:26:04;18.77;;;7.88;;
12359;SDS011;6244;51.460;7.090;2023-01-31T12:31:10;13.98;;;7.72;;
12359;SDS011;6244;51.460;7.090;2023-01-31T12:36:23;14.27;;;9.32;;
12359;SDS011;6244;51.460;7.090;2023-01-31T12:41:30;13.02;;;7.45;;
12359;SDS011;6244;51.460;7.090;2023-01-31T12:46:29;16.48;;;9.00;;
12359;SDS011;6244;51.460;7.090;2023-01-31T12:51:41;17.63;;;9.65;;
12359;SDS011;6244;51.460;7.090;2023-01-31T12:56:43;15.70;;;9.63;;
12359;SDS011;6244;51.460;7.090;2023-01-31T13:01:50;20.48;;;10.07;;
12359;SDS011;6244;51.460;7.090;2023-01-31T13:06:56;18.30;;;10.48;;
12359;SDS011;6244;51.460;7.090;2023-01-31T13:11:55;20.67;;;10.68;;
12359;SDS011;6244;51.460;7.090;2023-01-31T13:16:56;22.00;;;11.77;;
12359;SDS011;6244;51.460;7.090;2023-01-31T13:21:58;21.27;;;10.80;;
12359;SDS011;6244;51.460;7.090;2023-01-31T13:27:01;21.48;;;11.13;;
12359;SDS011;6244;51.460;7.090;2023-01-31T13:32:05;18.70;;;11.05;;
12359;SDS011;6244;51.460;7.090;2023-01-31T13:37:08;19.70;;;10.95;;
12359;SDS011;6244;51.460;7.090;2023-01-31T13:42:08;20.90;;;12.02;;
12359;SDS011;6244;51.460;7.090;2023-01-31T13:47:12;18.85;;;11.50;;
12359;SDS011;6244;51.460;7.090;2023-01-31T13:52:13;16.30;;;11.53;;
12359;SDS011;6244;51.460;7.090;2023-01-31T13:57:19;21.95;;;11.95;;
12359;SDS011;6244;51.460;7.090;2023-01-31T14:02:19;17.83;;;11.27;;
12359;SDS011;6244;51.460;7.090;2023-01-31T14:07:18;17.90;;;11.25;;
12359;SDS011;6244;51.460;7.090;2023-01-31T14:12:30;16.88;;;11.88;;
12359;SDS011;6244;51.460;7.090;2023-01-31T14:28:24;18.13;;;12.48;;
12359;SDS011;6244;51.460;7.090;2023-01-31T14:33:22;18.52;;;11.73;;
12359;SDS011;6244;51.460;7.090;2023-01-31T14:38:25;20.98;;;12.55;;
12359;SDS011;6244;51.460;7.090;2023-01-31T14:43:40;18.10;;;12.93;;
12359;SDS011;6244;51.460;7.090;2023-01-31T14:48:56;22.20;;;13.75;;
12359;SDS011;6244;51.460;7.090;2023-01-31T14:54:17;19.83;;;12.00;;
12359;SDS011;6244;51.460;7.090;2023-01-31T14:59:25;21.95;;;13.15;;
12359;SDS011;6244;51.460;7.090;2023-01-31T15:04:24;17.25;;;12.20;;
12359;SDS011;6244;51.460;7.090;2023-01-31T15:09:37;20.17;;;12.65;;
12359;SDS011;6244;51.460;7.090;2023-01-31T15:14:34;17.80;;;12.52;;
12359;SDS011;6244;51.460;7.090;2023-01-31T15:19:39;19.67;;;12.70;;
12359;SDS011;6244;51.460;7.090;2023-01-31T15:24:42;19.33;;;12.63;;
12359;SDS011;6244;51.460;7.090;2023-01-31T15:29:45;21.13;;;13.57;;
12359;SDS011;6244;51.460;7.090;2023-01-31T15:34:47;17.00;;;13.18;;
12359;SDS011;6244;51.460;7.090;2023-01-31T15:39:51;22.98;;;13.57;;
12359;SDS011;6244;51.460;7.090;2023-01-31T15:50:14;25.02;;;14.23;;
12359;SDS011;6244;51.460;7.090;2023-01-31T15:55:13;22.40;;;13.40;;
12359;SDS011;6244;51.460;7.090;2023-01-31T16:00:18;23.02;;;13.32;;
12359;SDS011;6244;51.460;7.090;2023-01-31T16:05:18;20.95;;;13.15;;
12359;SDS011;6244;51.460;7.090;2023-01-31T16:10:17;19.83;;;12.95;;
12359;SDS011;6244;51.460;7.090;2023-01-31T16:15:16;21.98;;;12.15;;
12359;SDS011;6244;51.460;7.090;2023-01-31T16:25:36;17.45;;;11.68;;
12359;SDS011;6244;51.460;7.090;2023-01-31T16:30:33;17.05;;;11.77;;
12359;SDS011;6244;51.460;7.090;2023-01-31T16:35:29;18.00;;;11.38;;
12359;SDS011;6244;51.460;7.090;2023-01-31T16:40:27;16.15;;;11.25;;
12359;SDS011;6244;51.460;7.090;2023-01-31T16:45:28;18.27;;;11.02;;
12359;SDS011;6244;51.460;7.090;2023-01-31T16:50:27;18.67;;;10.85;;
12359;SDS011;6244;51.460;7.090;2023-01-31T16:55:26;15.95;;;9.45;;
12359;SDS011;6244;51.460;7.090;2023-01-31T17:00:33;15.57;;;9.60;;
12359;SDS011;6244;51.460;7.090;2023-01-31T17:05:36;19.85;;;10.77;;
12359;SDS011;6244;51.460;7.090;2023-01-31T17:10:35;15.40;;;10.15;;
12359;SDS011;6244;51.460;7.090;2023-01-31T17:15:33;18.55;;;10.15;;
12359;SDS011;6244;51.460;7.090;2023-01-31T17:20:30;17.45;;;10.02;;
12359;SDS011;6244;51.460;7.090;2023-01-31T17:25:29;16.10;;;9.52;;
12359;SDS011;6244;51.460;7.090;2023-01-31T17:30:27;14.98;;;9.07;;
12359;SDS011;6244;51.460;7.090;2023-01-31T17:35:27;22.25;;;10.00;;
12359;SDS011;6244;51.460;7.090;2023-01-31T17:40:26;21.58;;;10.10;;
12359;SDS011;6244;51.460;7.090;2023-01-31T17:45:23;19.52;;;10.02;;
12359;SDS011;6244;51.460;7.090;2023-01-31T17:50:21;18.48;;;10.55;;
12359;SDS011;6244;51.460;7.090;2023-01-31T17:55:20;20.98;;;10.20;;
12359;SDS011;6244;51.460;7.090;2023-01-31T18:00:19;18.70;;;8.38;;
12359;SDS011;6244;51.460;7.090;2023-01-31T18:05:16;18.02;;;8.93;;
12359;SDS011;6244;51.460;7.090;2023-01-31T18:10:16;18.38;;;9.07;;
12359;SDS011;6244;51.460;7.090;2023-01-31T18:15:14;15.02;;;8.43;;
12359;SDS011;6244;51.460;7.090;2023-01-31T18:20:10;16.45;;;8.80;;
12359;SDS011;6244;51.460;7.090;2023-01-31T18:25:07;18.30;;;11.70;;
12359;SDS011;6244;51.460;7.090;2023-01-31T18:30:04;17.48;;;10.50;;
12359;SDS011;6244;51.460;7.090;2023-01-31T18:35:03;17.77;;;9.90;;
12359;SDS011;6244;51.460;7.090;2023-01-31T18:40:00;19.33;;;10.82;;
12359;SDS011;6244;51.460;7.090;2023-01-31T18:44:57;14.85;;;8.63;;
12359;SDS011;6244;51.460;7.090;2023-01-31T18:49:53;19.95;;;9.38;;
12359;SDS011;6244;51.460;7.090;2023-01-31T18:54:51;16.08;;;8.38;;
12359;SDS011;6244;51.460;7.090;2023-01-31T18:59:48;17.27;;;6.90;;
12359;SDS011;6244;51.460;7.090;2023-01-31T19:04:44;15.05;;;7.47;;
12359;SDS011;6244;51.460;7.090;2023-01-31T19:09:42;16.05;;;7.50;;
12359;SDS011;6244;51.460;7.090;2023-01-31T19:14:41;16.45;;;7.28;;
12359;SDS011;6244;51.460;7.090;2023-01-31T19:19:38;14.25;;;6.45;;
12359;SDS011;6244;51.460;7.090;2023-01-31T19:24:34;14.93;;;6.32;;
12359;SDS011;6244;51.460;7.090;2023-01-31T19:29:31;14.85;;;5.97;;
12359;SDS011;6244;51.460;7.090;2023-01-31T19:34:29;12.68;;;5.50;;
12359;SDS011;6244;51.460;7.090;2023-01-31T19:39:25;9.63;;;5.80;;
12359;SDS011;6244;51.460;7.090;2023-01-31T19:44:22;14.10;;;5.80;;
12359;SDS011;6244;51.460;7.090;2023-01-31T19:49:19;13.20;;;5.80;;
12359;SDS011;6244;51.460;7.090;2023-01-31T19:54:17;11.25;;;6.47;;
12359;SDS011;6244;51.460;7.090;2023-01-31T19:59:14;11.73;;;6.43;;
12359;SDS011;6244;51.460;7.090;2023-01-31T20:04:11;11.23;;;6.38;;
12359;SDS011;6244;51.460;7.090;2023-01-31T20:09:07;15.00;;;8.63;;
12359;SDS011;6244;51.460;7.090;2023-01-31T20:14:11;20.35;;;9.73;;
12359;SDS011;6244;51.460;7.090;2023-01-31T20:19:08;18.20;;;8.65;;
12359;SDS011;6244;51.460;7.090;2023-01-31T20:24:05;20.33;;;9.23;;
12359;SDS011;6244;51.460;7.090;2023-01-31T20:29:02;19.63;;;9.80;;
12359;SDS011;6244;51.460;7.090;2023-01-31T20:34:00;18.67;;;9.98;;
12359;SDS011;6244;51.460;7.090;2023-01-31T20:38:57;16.50;;;8.88;;
12359;SDS011;6244;51.460;7.090;2023-01-31T20:43:53;17.50;;;8.82;;
12359;SDS011;6244;51.460;7.090;2023-01-31T20:48:56;17.15;;;8.60;;
12359;SDS011;6244;51.460;7.090;2023-01-31T20:53:54;17.38;;;8.10;;
12359;SDS011;6244;51.460;7.090;2023-01-31T20:58:52;17.45;;;8.98;;
12359;SDS011;6244;51.460;7.090;2023-01-31T21:03:49;14.52;;;7.10;;
12359;SDS011;6244;51.460;7.090;2023-01-31T21:08:46;17.85;;;8.07;;
12359;SDS011;6244;51.460;7.090;2023-01-31T21:13:44;15.48;;;7.78;;
12359;SDS011;6244;51.460;7.090;2023-01-31T21:18:41;15.93;;;7.93;;
12359;SDS011;6244;51.460;7.090;2023-01-31T21:23:38;16.73;;;7.50;;
12359;SDS011;6244;51.460;7.090;2023-01-31T21:28:36;14.65;;;7.43;;
12359;SDS011;6244;51.460;7.090;2023-01-31T21:33:35;20.83;;;7.75;;
12359;SDS011;6244;51.460;7.090;2023-01-31T21:38:31;13.95;;;7.18;;
12359;SDS011;6244;51.460;7.090;2023-01-31T21:43:29;16.35;;;7.40;;
12359;SDS011;6244;51.460;7.090;2023-01-31T21:48:26;15.85;;;7.40;;
12359;SDS011;6244;51.460;7.090;2023-01-31T21:53:27;13.70;;;7.22;;
12359;SDS011;6244;51.460;7.090;2023-01-31T21:58:24;10.18;;;5.85;;
12359;SDS011;6244;51.460;7.090;2023-01-31T22:03:20;17.85;;;7.10;;
12359;SDS011;6244;51.460;7.090;2023-01-31T22:08:17;13.02;;;6.40;;
12359;SDS011;6244;51.460;7.090;2023-01-31T22:13:15;13.35;;;6.88;;
12359;SDS011;6244;51.460;7.090;2023-01-31T22:18:11;14.68;;;6.90;;
12359;SDS011;6244;51.460;7.090;2023-01-31T22:23:08;18.48;;;8.43;;
12359;SDS011;6244;51.460;7.090;2023-01-31T22:28:04;15.07;;;7.95;;
12359;SDS011;6244;51.460;7.090;2023-01-31T22:33:02;13.25;;;8.65;;
12359;SDS011;6244;51.460;7.090;2023-01-31T22:37:59;19.65;;;9.43;;
12359;SDS011;6244;51.460;7.090;2023-01-31T22:42:59;19.30;;;9.20;;
12359;SDS011;6244;51.460;7.090;2023-01-31T22:47:55;17.35;;;10.30;;
12359;SDS011;6244;51.460;7.090;2023-01-31T22:52:53;19.70;;;9.70;;
12359;SDS011;6244;51.460;7.090;2023-01-31T22:57:50;19.20;;;10.65;;
12359;SDS011;6244;51.460;7.090;2023-01-31T23:02:46;17.00;;;10.05;;
12359;SDS011;6244;51.460;7.090;2023-01-31T23:07:43;17.75;;;10.80;;
12359;SDS011;6244;51.460;7.090;2023-01-31T23:12:40;19.75;;;10.73;;
12359;SDS011;6244;51.460;7.090;2023-01-31T23:17:40;22.10;;;11.00;;
12359;SDS011;6244;51.460;7.090;2023-01-31T23:22:37;20.73;;;10.95;;
12359;SDS011;6244;51.460;7.090;2023-01-31T23:27:34;21.15;;;11.15;;
12359;SDS011;6244;51.460;7.090;2023-01-31T23:32:32;18.20;;;10.82;;
12359;SDS011;6244;51.460;7.090;2023-01-31T23:37:29;15.32;;;9.38;;
12359;SDS011;6244;51.460;7.090;2023-01-31T23:42:26;17.88;;;10.38;;
12359;SDS011;6244;51.460;7.090;2023-01-31T23:47:23;17.67;;;9.52;;
12359;SDS011;6244;51.460;7.090;2023-01-31T23:52:20;18.75;;;9.43;;
12359;SDS011;6244;51.460;7.090;2023-01-31T23:57:17;19.15;;;8.90;;
